Time;durP1;ratioP1;P1;durP2;ratioP2;P2;SDS_P1;SDS_P2;PMS_P1;PMS_P2;Temp;Humidity;BMP_temperature;BMP_pressure;BME280_temperature;BME280_humidity;BME280_pressure;Samples;Min_cycle;Max_cycle;Signal;HPM_P1;HPM_P2
2023/05/16 00:00:24;;;;;;;4.70;1.00;;;11.60;92.00;;;;;;5011031;28;20406;-80
2023/05/16 00:02:50;;;;;;;2.95;0.88;;;11.60;92.10;;;;;;5016538;28;20016;-82
2023/05/16 00:05:16;;;;;;;2.55;0.70;;;11.60;92.10;;;;;;5048333;28;20339;-80
2023/05/16 00:07:46;;;;;;;4.22;0.98;;;11.50;92.10;;;;;;5046032;28;20020;-80
2023/05/16 00:10:12;;;;;;;2.70;0.80;;;11.50;92.20;;;;;;5053758;28;20544;-79
2023/05/16 00:12:39;;;;;;;3.40;1.10;;;11.50;92.20;;;;;;5028697;28;20498;-78
2023/05/16 00:15:11;;;;;;;2.40;0.70;;;11.50;92.20;;;;;;5006763;28;20728;-80
2023/05/16 00:17:37;;;;;;;3.67;0.90;;;11.40;92.20;;;;;;5038690;28;20588;-80
2023/05/16 00:20:06;;;;;;;3.53;0.70;;;11.40;92.20;;;;;;5036421;28;20026;-79
2023/05/16 00:22:32;;;;;;;2.13;0.70;;;11.40;92.20;;;;;;5028381;28;20029;-83
2023/05/16 00:24:58;;;;;;;2.13;0.63;;;11.40;92.20;;;;;;5038300;28;20029;-84
2023/05/16 00:27:24;;;;;;;3.70;0.88;;;11.40;92.30;;;;;;5011188;28;20035;-82
2023/05/16 00:29:50;;;;;;;4.53;0.88;;;11.30;92.20;;;;;;5039117;28;20057;-80
2023/05/16 00:32:17;;;;;;;2.47;0.80;;;11.30;92.20;;;;;;5022807;28;20251;-85
2023/05/16 00:34:43;;;;;;;2.22;0.85;;;11.30;92.30;;;;;;5057547;28;20021;-81
2023/05/16 00:37:09;;;;;;;2.95;0.90;;;11.30;92.30;;;;;;5037865;28;20210;-80
2023/05/16 00:39:34;;;;;;;2.30;0.70;;;11.20;92.30;;;;;;5030878;28;20041;-79
2023/05/16 00:42:00;;;;;;;3.40;0.60;;;11.20;92.30;;;;;;5009795;28;20044;-80
2023/05/16 00:44:27;;;;;;;4.88;1.00;;;11.10;92.30;;;;;;5054880;28;20028;-80
2023/05/16 00:46:53;;;;;;;2.60;0.70;;;11.10;92.30;;;;;;5011137;28;20025;-79
2023/05/16 00:49:20;;;;;;;1.90;0.70;;;11.10;92.30;;;;;;5053600;28;20055;-80
2023/05/16 00:51:45;;;;;;;2.72;0.70;;;11.10;92.30;;;;;;5037101;28;20102;-80
2023/05/16 00:54:12;;;;;;;2.67;0.80;;;11.10;92.30;;;;;;5027468;28;20491;-79
2023/05/16 00:56:38;;;;;;;3.50;0.80;;;11.00;92.30;;;;;;5038147;28;20021;-80
2023/05/16 00:59:04;;;;;;;2.40;0.70;;;11.00;92.30;;;;;;5027844;28;20017;-79
2023/05/16 01:01:31;;;;;;;4.97;0.70;;;11.00;92.40;;;;;;5029100;28;20037;-80
2023/05/16 01:03:57;;;;;;;1.83;0.60;;;11.00;92.50;;;;;;5020215;28;20088;-81
2023/05/16 01:06:23;;;;;;;2.33;0.60;;;10.90;92.40;;;;;;5057014;28;20028;-81
2023/05/16 01:08:49;;;;;;;1.80;0.80;;;10.90;92.40;;;;;;5033414;28;20667;-81
2023/05/16 01:11:33;;;;;;;3.10;0.70;;;10.90;92.40;;;;;;5031491;28;20520;-80
2023/05/16 01:14:26;;;;;;;2.00;0.70;;;10.80;92.50;;;;;;5024861;28;20585;-84
2023/05/16 01:17:00;;;;;;;1.50;0.65;;;10.80;92.50;;;;;;5011242;28;21196;-84
2023/05/16 01:19:57;;;;;;;2.40;0.95;;;10.80;92.50;;;;;;5038306;28;20061;-80
2023/05/16 01:22:36;;;;;;;1.63;0.60;;;10.80;92.50;;;;;;5039796;28;20055;-83
2023/05/16 01:25:30;;;;;;;5.35;0.80;;;10.70;92.50;;;;;;5025755;28;20295;-80
2023/05/16 01:27:57;;;;;;;2.58;0.63;;;10.70;92.50;;;;;;5035696;28;20025;-80
2023/05/16 01:30:23;;;;;;;3.10;0.70;;;10.70;92.40;;;;;;5023012;28;20071;-80
2023/05/16 01:32:48;;;;;;;1.33;0.60;;;10.70;92.50;;;;;;5009821;28;20037;-82
2023/05/16 01:35:16;;;;;;;2.17;0.85;;;10.60;92.50;;;;;;5038262;28;20465;-80
2023/05/16 01:37:58;;;;;;;4.32;0.80;;;10.60;92.50;;;;;;5037623;28;20124;-80
2023/05/16 01:40:55;;;;;;;3.15;0.93;;;10.60;92.50;;;;;;5008686;28;20544;-82
2023/05/16 01:43:30;;;;;;;1.83;0.70;;;10.50;92.60;;;;;;5034182;28;20581;-84
2023/05/16 01:46:02;;;;;;;1.23;0.60;;;10.50;92.50;;;;;;5027657;28;20531;-84
2023/05/16 01:48:37;;;;;;;4.78;1.23;;;10.50;92.50;;;;;;5009631;28;20295;-80
2023/05/16 01:51:03;;;;;;;2.75;0.73;;;10.50;92.50;;;;;;5057152;28;20025;-81
2023/05/16 01:53:39;;;;;;;2.78;0.95;;;10.40;92.50;;;;;;5036525;28;20048;-79
2023/05/16 01:56:10;;;;;;;1.87;0.67;;;10.40;92.50;;;;;;5022714;28;20021;-80
2023/05/16 01:58:36;;;;;;;2.30;0.82;;;10.40;92.60;;;;;;5051499;28;20025;-83
2023/05/16 02:01:04;;;;;;;1.95;0.88;;;10.30;92.60;;;;;;5026668;28;20025;-82
2023/05/16 02:03:31;;;;;;;2.55;0.70;;;10.30;92.60;;;;;;5006768;28;20516;-85
2023/05/16 02:05:57;;;;;;;3.63;0.70;;;10.30;92.60;;;;;;5037418;28;20107;-83
2023/05/16 02:08:25;;;;;;;1.47;0.50;;;10.30;92.60;;;;;;5031977;28;20333;-80
2023/05/16 02:10:51;;;;;;;2.25;0.85;;;10.30;92.60;;;;;;5036114;28;20107;-80
2023/05/16 02:13:17;;;;;;;3.05;0.80;;;10.20;92.60;;;;;;5018995;28;20068;-79
2023/05/16 02:15:43;;;;;;;2.67;0.60;;;10.30;92.70;;;;;;5025528;28;20600;-81
2023/05/16 02:18:09;;;;;;;2.67;0.98;;;10.20;92.70;;;;;;5017122;28;20425;-80
2023/05/16 02:20:36;;;;;;;2.93;0.80;;;10.20;92.80;;;;;;5021374;28;20677;-85
2023/05/16 02:23:02;;;;;;;2.30;0.85;;;10.20;92.70;;;;;;5053033;28;20032;-82
2023/05/16 02:25:28;;;;;;;2.53;0.80;;;10.10;92.70;;;;;;5032995;28;20564;-81
2023/05/16 02:27:55;;;;;;;2.65;0.70;;;10.20;92.80;;;;;;5029168;28;20081;-82
2023/05/16 02:30:21;;;;;;;3.20;0.70;;;10.20;92.70;;;;;;5020348;28;20025;-84
2023/05/16 02:32:47;;;;;;;2.22;0.80;;;10.10;92.70;;;;;;5020022;28;20110;-82
2023/05/16 02:35:14;;;;;;;1.23;0.55;;;10.10;92.70;;;;;;5007368;28;20164;-81
2023/05/16 02:37:41;;;;;;;2.33;0.70;;;10.10;92.70;;;;;;5052377;28;20028;-82
2023/05/16 02:40:08;;;;;;;1.98;0.77;;;10.10;92.70;;;;;;5034777;28;20032;-80
2023/05/16 02:42:34;;;;;;;3.93;1.13;;;10.00;92.70;;;;;;5036170;28;20238;-83
2023/05/16 02:44:59;;;;;;;1.75;0.75;;;10.00;92.70;;;;;;5019909;28;20111;-82
2023/05/16 02:47:25;;;;;;;2.83;0.80;;;10.00;93.00;;;;;;5020475;28;20348;-85
2023/05/16 02:49:51;;;;;;;3.17;0.80;;;10.00;92.70;;;;;;5001159;28;20052;-84
2023/05/16 02:52:18;;;;;;;2.35;0.75;;;10.00;92.70;;;;;;5044343;28;20083;-80
2023/05/16 02:54:44;;;;;;;2.30;0.75;;;9.90;92.70;;;;;;5032378;28;20032;-83
2023/05/16 02:57:10;;;;;;;2.67;0.60;;;9.90;92.70;;;;;;5048666;28;20029;-82
2023/05/16 02:59:35;;;;;;;2.08;0.63;;;9.90;92.70;;;;;;5032763;28;20749;-84
2023/05/16 03:02:02;;;;;;;2.80;0.70;;;9.90;92.70;;;;;;5042632;28;20567;-82
2023/05/16 03:04:28;;;;;;;2.95;0.70;;;9.90;92.70;;;;;;5033908;28;20128;-80
2023/05/16 03:06:55;;;;;;;1.80;0.70;;;9.80;92.70;;;;;;5007780;28;20021;-82
2023/05/16 03:09:21;;;;;;;2.22;0.70;;;9.80;92.70;;;;;;5036689;28;20118;-82
2023/05/16 03:11:47;;;;;;;3.38;0.85;;;9.80;92.70;;;;;;5039744;28;20410;-82
2023/05/16 03:14:13;;;;;;;3.00;0.70;;;9.80;92.80;;;;;;5027764;28;20107;-81
2023/05/16 03:16:42;;;;;;;3.93;0.80;;;9.80;92.80;;;;;;5041569;28;20056;-81
2023/05/16 03:19:08;;;;;;;2.25;0.90;;;9.70;92.80;;;;;;5022961;28;20302;-84
2023/05/16 03:21:33;;;;;;;1.70;0.70;;;9.70;92.80;;;;;;5023071;28;20914;-84
2023/05/16 03:24:03;;;;;;;3.33;0.70;;;9.70;92.80;;;;;;5057508;28;20032;-84
2023/05/16 03:26:29;;;;;;;1.35;0.60;;;9.70;92.80;;;;;;5051951;28;20246;-85
2023/05/16 03:28:55;;;;;;;3.78;0.93;;;9.70;92.80;;;;;;5042301;28;20032;-84
2023/05/16 03:31:21;;;;;;;2.05;0.70;;;9.60;92.70;;;;;;5013634;28;20033;-86
2023/05/16 03:33:47;;;;;;;2.90;0.80;;;9.60;93.10;;;;;;5036621;28;20115;-86
2023/05/16 03:36:13;;;;;;;3.25;0.80;;;9.60;92.70;;;;;;5034161;28;20033;-84
2023/05/16 03:38:39;;;;;;;2.20;0.80;;;9.60;92.70;;;;;;5010195;28;20063;-88
2023/05/16 03:41:05;;;;;;;0.88;0.68;;;9.50;92.70;;;;;;5034799;28;20128;-84
2023/05/16 03:43:30;;;;;;;2.25;0.80;;;9.50;92.70;;;;;;5034763;28;20250;-86
2023/05/16 03:45:57;;;;;;;1.73;0.70;;;9.50;92.70;;;;;;5035119;28;20037;-85
2023/05/16 03:48:23;;;;;;;2.42;0.60;;;9.50;92.70;;;;;;5031026;28;20210;-85
2023/05/16 03:50:50;;;;;;;2.38;0.70;;;9.40;92.70;;;;;;5019988;28;20091;-86
2023/05/16 03:53:16;;;;;;;3.60;1.05;;;9.40;92.70;;;;;;4992830;28;20056;-84
2023/05/16 03:55:42;;;;;;;4.47;1.00;;;9.40;92.70;;;;;;5024005;28;20017;-87
2023/05/16 03:58:08;;;;;;;3.60;0.60;;;9.30;92.60;;;;;;5039726;28;20532;-84
2023/05/16 04:00:35;;;;;;;3.03;0.70;;;9.30;93.00;;;;;;5041286;28;20322;-87
2023/05/16 04:03:01;;;;;;;1.92;0.70;;;9.30;92.70;;;;;;5027330;28;20596;-84
2023/05/16 04:05:28;;;;;;;2.88;0.73;;;9.20;92.70;;;;;;5031545;28;20561;-87
2023/05/16 04:07:54;;;;;;;4.18;1.05;;;9.20;92.70;;;;;;5040406;28;20035;-88
2023/05/16 04:10:20;;;;;;;2.47;0.60;;;9.20;92.70;;;;;;5008508;28;20396;-86
2023/05/16 04:12:46;;;;;;;1.02;0.60;;;9.20;92.80;;;;;;5040187;28;20025;-83
2023/05/16 04:15:11;;;;;;;3.00;0.80;;;9.10;92.80;;;;;;5037112;28;20028;-84
2023/05/16 04:17:38;;;;;;;1.77;0.70;;;9.20;92.80;;;;;;5012412;28;20040;-86
2023/05/16 04:20:05;;;;;;;2.97;0.80;;;9.10;92.80;;;;;;5030381;28;20029;-85
2023/05/16 04:22:31;;;;;;;1.60;0.57;;;9.10;92.90;;;;;;5033328;28;20284;-87
2023/05/16 04:24:57;;;;;;;3.13;0.93;;;9.10;92.90;;;;;;5013776;28;20098;-86
2023/05/16 04:27:23;;;;;;;1.33;0.60;;;9.10;92.90;;;;;;5066557;28;20296;-87
2023/05/16 04:29:49;;;;;;;2.05;0.70;;;9.10;93.00;;;;;;5040143;28;20021;-88
2023/05/16 04:32:16;;;;;;;1.40;0.60;;;9.10;93.00;;;;;;5013641;28;20021;-84
2023/05/16 04:34:43;;;;;;;1.55;0.60;;;9.10;93.10;;;;;;5030873;28;20021;-89
2023/05/16 04:37:09;;;;;;;2.43;1.00;;;9.10;93.40;;;;;;5054719;28;20029;-84
2023/05/16 04:39:35;;;;;;;1.70;0.63;;;9.10;93.10;;;;;;5013154;28;21139;-87
2023/05/16 04:42:03;;;;;;;2.38;0.70;;;9.10;93.20;;;;;;5038955;28;20060;-85
2023/05/16 04:44:29;;;;;;;1.90;0.82;;;9.00;93.20;;;;;;5054218;28;20590;-86
2023/05/16 04:46:55;;;;;;;3.53;0.70;;;9.10;93.30;;;;;;5040789;28;20489;-87
2023/05/16 04:49:21;;;;;;;4.55;0.73;;;9.10;93.40;;;;;;5014397;28;20313;-86
2023/05/16 04:51:47;;;;;;;2.50;0.70;;;9.10;93.40;;;;;;5054458;28;20540;-86
2023/05/16 04:54:14;;;;;;;1.58;0.63;;;9.10;93.50;;;;;;5013883;28;20521;-83
2023/05/16 04:56:39;;;;;;;1.50;0.70;;;9.20;93.60;;;;;;5051266;28;20355;-86
2023/05/16 04:59:05;;;;;;;1.65;0.60;;;9.20;93.60;;;;;;5021770;28;20043;-84
2023/05/16 05:01:31;;;;;;;3.20;0.65;;;9.30;93.70;;;;;;5020457;28;20294;-82
2023/05/16 05:03:57;;;;;;;4.10;0.90;;;9.30;93.80;;;;;;5022684;28;20082;-84
2023/05/16 05:06:23;;;;;;;2.35;0.75;;;9.30;93.80;;;;;;4991091;28;20727;-84
2023/05/16 05:08:49;;;;;;;2.67;0.63;;;9.40;93.80;;;;;;5040208;28;20029;-83
2023/05/16 05:11:15;;;;;;;1.10;0.60;;;9.40;93.90;;;;;;5006283;28;20112;-80
2023/05/16 05:13:40;;;;;;;1.70;0.73;;;9.50;93.90;;;;;;5057075;28;20076;-86
2023/05/16 05:16:06;;;;;;;3.90;0.80;;;9.60;94.00;;;;;;5048560;28;20029;-84
2023/05/16 05:18:32;;;;;;;1.73;0.67;;;9.60;94.00;;;;;;5049163;28;20530;-84
2023/05/16 05:20:59;;;;;;;3.10;0.63;;;9.60;94.10;;;;;;5012409;28;20075;-81
2023/05/16 05:23:25;;;;;;;3.20;0.80;;;9.70;94.20;;;;;;5011447;28;20129;-80
2023/05/16 05:25:50;;;;;;;0.88;0.60;;;9.70;94.20;;;;;;5051950;28;20478;-84
2023/05/16 05:28:16;;;;;;;2.63;0.70;;;9.80;94.30;;;;;;5003987;28;20025;-82
2023/05/16 05:30:42;;;;;;;3.25;0.85;;;9.90;94.30;;;;;;5036546;28;20063;-83
2023/05/16 05:33:10;;;;;;;2.65;1.00;;;9.90;94.70;;;;;;5029392;28;20584;-82
2023/05/16 05:35:36;;;;;;;1.97;0.80;;;10.00;94.40;;;;;;5026346;28;20459;-85
2023/05/16 05:38:03;;;;;;;1.55;0.75;;;10.10;94.40;;;;;;5019775;28;20037;-80
2023/05/16 05:40:29;;;;;;;2.58;0.77;;;10.10;94.40;;;;;;5033775;28;20647;-84
2023/05/16 05:42:54;;;;;;;1.52;0.65;;;10.20;94.50;;;;;;5007551;28;20021;-82
2023/05/16 05:45:20;;;;;;;2.07;0.67;;;10.20;94.50;;;;;;5032778;28;20257;-82
2023/05/16 05:47:46;;;;;;;1.48;0.52;;;10.30;94.60;;;;;;5032751;28;20028;-80
2023/05/16 05:50:14;;;;;;;2.05;0.70;;;10.40;94.60;;;;;;5018292;28;20028;-80
2023/05/16 05:52:40;;;;;;;1.65;0.70;;;10.50;94.70;;;;;;5026554;28;20044;-84
2023/05/16 05:55:06;;;;;;;2.17;0.60;;;10.50;94.70;;;;;;5030228;28;20033;-84
2023/05/16 05:57:32;;;;;;;2.63;0.70;;;10.60;94.70;;;;;;4980985;28;20026;-83
2023/05/16 05:59:58;;;;;;;2.00;0.55;;;10.70;94.70;;;;;;5030760;28;20048;-80
2023/05/16 06:02:23;;;;;;;0.60;0.50;;;10.80;94.80;;;;;;5030106;28;20287;-83
2023/05/16 06:04:49;;;;;;;2.33;0.60;;;10.80;94.80;;;;;;5037317;28;20075;-81
2023/05/16 06:07:17;;;;;;;3.65;0.95;;;10.90;94.80;;;;;;5007563;28;20020;-82
2023/05/16 06:09:43;;;;;;;3.37;0.70;;;11.00;94.80;;;;;;4996524;28;20243;-80
2023/05/16 06:12:09;;;;;;;2.63;0.70;;;11.10;94.80;;;;;;5003874;28;20033;-79
2023/05/16 06:14:34;;;;;;;1.13;0.57;;;11.20;94.90;;;;;;5024093;28;20033;-79
2023/05/16 06:17:00;;;;;;;2.58;0.77;;;11.30;94.90;;;;;;5036133;28;20649;-80
2023/05/16 06:19:27;;;;;;;4.23;1.00;;;11.40;94.90;;;;;;5034758;28;20382;-79
2023/05/16 06:21:53;;;;;;;2.03;0.68;;;11.40;94.80;;;;;;5026203;28;20146;-86
2023/05/16 06:24:18;;;;;;;2.45;0.80;;;11.50;94.80;;;;;;5026198;28;20036;-79
2023/05/16 06:26:48;;;;;;;2.27;0.90;;;11.60;94.80;;;;;;5003482;28;20037;-81
2023/05/16 06:29:15;;;;;;;5.10;1.10;;;11.70;94.80;;;;;;5039260;28;20572;-82
2023/05/16 06:31:41;;;;;;;4.30;0.70;;;11.80;94.80;;;;;;5039820;28;20032;-82
2023/05/16 06:34:07;;;;;;;2.33;0.70;;;11.80;94.80;;;;;;5036782;28;20086;-82
2023/05/16 06:36:33;;;;;;;2.60;0.70;;;11.90;94.80;;;;;;5021654;28;20107;-79
2023/05/16 06:38:59;;;;;;;1.38;0.70;;;12.00;94.70;;;;;;5016587;28;20067;-80
2023/05/16 06:41:25;;;;;;;2.93;0.77;;;12.00;94.70;;;;;;5021235;28;20160;-81
2023/05/16 06:43:51;;;;;;;2.28;0.73;;;12.10;94.60;;;;;;5006651;28;20056;-81
2023/05/16 06:46:17;;;;;;;2.88;0.90;;;12.20;94.60;;;;;;5028798;28;20036;-79
2023/05/16 06:48:43;;;;;;;2.50;0.88;;;12.30;94.70;;;;;;5035873;28;20036;-81
2023/05/16 06:51:09;;;;;;;2.37;0.90;;;12.40;94.80;;;;;;5044600;28;20029;-80
2023/05/16 06:53:35;;;;;;;3.53;0.90;;;12.50;94.80;;;;;;5023759;28;20135;-78
2023/05/16 06:56:01;;;;;;;3.03;0.60;;;12.50;94.80;;;;;;5013964;28;20032;-80
2023/05/16 06:58:27;;;;;;;2.53;0.60;;;12.70;94.70;;;;;;5006785;28;20244;-79
2023/05/16 07:00:53;;;;;;;1.92;1.00;;;12.70;94.70;;;;;;5035933;28;20040;-83
2023/05/16 07:03:19;;;;;;;2.40;0.90;;;12.80;94.70;;;;;;5047061;28;20033;-81
2023/05/16 07:05:45;;;;;;;1.43;0.73;;;12.90;94.60;;;;;;5034127;28;20414;-84
2023/05/16 07:08:11;;;;;;;3.13;0.90;;;12.90;94.50;;;;;;5056388;28;20111;-80
2023/05/16 07:10:38;;;;;;;2.05;0.63;;;13.00;94.50;;;;;;5014426;28;20029;-85
2023/05/16 07:13:04;;;;;;;1.85;0.75;;;13.10;94.50;;;;;;5020718;28;20029;-79
2023/05/16 07:15:30;;;;;;;1.53;0.80;;;13.20;94.60;;;;;;5031575;28;20596;-80
2023/05/16 07:17:56;;;;;;;2.42;0.80;;;13.30;94.70;;;;;;5035035;28;20075;-80
2023/05/16 07:20:22;;;;;;;1.70;0.70;;;13.40;94.80;;;;;;5033713;28;20450;-78
2023/05/16 07:22:48;;;;;;;1.88;0.65;;;13.50;94.70;;;;;;5026283;28;20031;-80
2023/05/16 07:25:14;;;;;;;2.90;0.70;;;13.60;94.50;;;;;;5038442;28;20036;-80
2023/05/16 07:27:43;;;;;;;1.35;0.70;;;13.70;94.40;;;;;;5020795;28;20558;-80
2023/05/16 07:30:13;;;;;;;2.47;0.90;;;13.70;94.30;;;;;;5004953;28;20748;-79
2023/05/16 07:32:40;;;;;;;2.38;0.70;;;13.80;94.00;;;;;;5041646;28;20474;-80
2023/05/16 07:35:06;;;;;;;2.00;0.68;;;14.00;94.40;;;;;;5034579;28;20469;-81
2023/05/16 07:37:32;;;;;;;1.93;0.80;;;14.10;94.50;;;;;;5022761;28;20111;-80
2023/05/16 07:39:58;;;;;;;1.77;0.70;;;14.20;94.30;;;;;;5038931;28;20040;-78
2023/05/16 07:42:26;;;;;;;2.17;0.77;;;14.30;94.20;;;;;;5017895;28;20379;-79
2023/05/16 07:44:51;;;;;;;2.33;0.80;;;14.40;94.40;;;;;;5011348;28;20025;-77
2023/05/16 07:47:17;;;;;;;3.03;0.60;;;14.50;94.40;;;;;;5038233;28;20021;-82
2023/05/16 07:49:43;;;;;;;2.10;0.80;;;14.50;94.20;;;;;;5038968;28;20078;-86
2023/05/16 07:52:09;;;;;;;1.77;0.70;;;14.60;94.00;;;;;;5041212;28;20599;-81
2023/05/16 07:54:35;;;;;;;2.40;0.70;;;14.70;94.00;;;;;;4994523;28;20315;-80
2023/05/16 07:57:01;;;;;;;3.25;1.00;;;14.80;94.30;;;;;;4988659;28;20026;-80
2023/05/16 07:59:28;;;;;;;3.73;0.90;;;14.90;94.50;;;;;;4969974;28;20033;-79
2023/05/16 08:01:55;;;;;;;1.85;0.85;;;15.10;94.40;;;;;;4997979;28;20041;-82
2023/05/16 08:04:21;;;;;;;4.22;0.85;;;15.20;94.60;;;;;;4994899;28;20045;-82
2023/05/16 08:06:47;;;;;;;2.97;1.20;;;15.40;95.00;;;;;;4996626;28;20121;-78
2023/05/16 08:09:12;;;;;;;3.37;0.90;;;15.60;94.90;;;;;;4991848;28;20091;-83
2023/05/16 08:11:38;;;;;;;1.83;1.10;;;15.80;95.00;;;;;;5003907;28;20752;-79
2023/05/16 08:14:05;;;;;;;2.40;0.88;;;16.10;95.20;;;;;;4969842;28;20040;-81
2023/05/16 08:16:31;;;;;;;2.87;0.90;;;16.40;96.00;;;;;;5009936;28;20044;-82
2023/05/16 08:18:56;;;;;;;2.97;1.05;;;16.70;95.30;;;;;;4995937;28;20491;-79
2023/05/16 08:21:22;;;;;;;3.45;1.20;;;17.00;94.80;;;;;;4992836;28;20140;-79
2023/05/16 08:23:48;;;;;;;3.80;1.03;;;17.20;95.20;;;;;;4999317;28;20037;-82
2023/05/16 08:26:16;;;;;;;2.88;1.10;;;17.60;96.20;;;;;;4984717;28;20535;-83
2023/05/16 08:28:42;;;;;;;2.60;1.20;;;18.00;95.70;;;;;;4978729;28;20036;-78
2023/05/16 08:31:08;;;;;;;3.78;1.15;;;18.40;95.60;;;;;;4966050;28;20399;-83
2023/05/16 08:33:34;;;;;;;2.70;1.10;;;18.80;96.00;;;;;;4991838;28;20088;-81
2023/05/16 08:36:00;;;;;;;2.80;1.05;;;19.20;94.10;;;;;;4996032;28;20101;-84
2023/05/16 08:38:26;;;;;;;1.33;0.93;;;19.50;94.40;;;;;;5002202;28;20040;-81
2023/05/16 08:40:51;;;;;;;3.38;1.00;;;19.80;94.80;;;;;;4980397;28;20127;-80
2023/05/16 08:43:17;;;;;;;3.20;1.20;;;20.20;94.40;;;;;;4999608;28;20038;-79
2023/05/16 08:45:43;;;;;;;1.88;0.90;;;20.60;94.40;;;;;;4946540;28;20689;-84
2023/05/16 08:48:10;;;;;;;1.95;1.10;;;20.90;94.50;;;;;;4995154;28;20033;-79
2023/05/16 08:50:36;;;;;;;1.30;0.77;;;21.30;94.80;;;;;;4985012;28;21448;-80
2023/05/16 08:53:08;;;;;;;1.97;0.97;;;21.70;94.70;;;;;;5011834;28;20056;-80
2023/05/16 08:55:35;;;;;;;1.40;0.80;;;22.10;92.00;;;;;;5028525;28;20081;-79
2023/05/16 08:58:02;;;;;;;2.67;1.00;;;22.40;93.30;;;;;;5049329;28;20322;-79
2023/05/16 09:00:28;;;;;;;4.03;0.90;;;22.70;93.00;;;;;;5017331;28;20041;-80
2023/05/16 09:02:54;;;;;;;2.80;0.90;;;23.00;92.00;;;;;;5007288;28;20239;-78
2023/05/16 09:05:22;;;;;;;3.57;1.00;;;23.10;91.50;;;;;;5050078;28;20036;-80
2023/05/16 09:07:48;;;;;;;1.65;0.80;;;23.30;91.60;;;;;;5035741;28;20311;-78
2023/05/16 09:10:15;;;;;;;1.85;0.90;;;23.60;92.40;;;;;;5037291;28;20036;-81
2023/05/16 09:12:42;;;;;;;1.48;1.00;;;23.90;92.90;;;;;;5037141;28;20346;-82
2023/05/16 09:15:09;;;;;;;1.70;0.95;;;24.20;92.30;;;;;;5018798;28;20140;-80
2023/05/16 09:17:37;;;;;;;2.53;0.73;;;24.50;90.90;;;;;;4986527;28;20068;-80
2023/05/16 09:20:17;;;;;;;2.85;0.90;;;24.70;91.00;;;;;;5029962;28;20094;-79
2023/05/16 09:22:51;;;;;;;1.63;0.90;;;25.00;86.00;;;;;;5034970;28;20302;-80
2023/05/16 09:25:17;;;;;;;2.65;1.05;;;25.10;83.90;;;;;;5033562;28;20661;-80
2023/05/16 09:27:46;;;;;;;2.50;0.90;;;25.20;86.90;;;;;;5014998;28;20241;-82
2023/05/16 09:30:15;;;;;;;1.53;0.80;;;25.20;85.00;;;;;;5048264;28;20874;-78
2023/05/16 09:32:44;;;;;;;2.85;1.00;;;25.30;86.10;;;;;;4985173;28;20526;-82
2023/05/16 09:35:15;;;;;;;2.08;0.90;;;25.40;82.50;;;;;;5028189;28;20402;-79
2023/05/16 09:37:45;;;;;;;2.45;0.98;;;25.40;79.60;;;;;;5034294;28;20027;-82
2023/05/16 09:40:11;;;;;;;2.63;0.90;;;25.40;79.60;;;;;;5029423;28;20517;-79
2023/05/16 09:42:37;;;;;;;1.73;0.97;;;25.30;81.40;;;;;;5005036;28;20394;-80
2023/05/16 09:45:04;;;;;;;1.08;0.68;;;25.10;79.90;;;;;;5038504;28;20378;-80
2023/05/16 09:47:29;;;;;;;2.08;0.80;;;24.90;77.40;;;;;;4987000;28;20112;-80
2023/05/16 09:49:56;;;;;;;1.73;0.70;;;24.60;76.70;;;;;;5030021;28;20261;-78
2023/05/16 09:52:25;;;;;;;0.87;0.50;;;24.40;76.90;;;;;;5020355;28;20976;-79
2023/05/16 09:54:51;;;;;;;1.25;0.85;;;24.10;76.50;;;;;;5034144;28;20052;-81
2023/05/16 09:57:18;;;;;;;2.13;0.70;;;24.00;78.90;;;;;;5021210;28;20337;-81
2023/05/16 09:59:44;;;;;;;0.97;0.70;;;24.00;77.70;;;;;;5034326;28;20248;-80
2023/05/16 10:02:12;;;;;;;2.20;0.80;;;24.00;79.50;;;;;;4984037;28;20446;-79
2023/05/16 10:04:38;;;;;;;1.08;0.60;;;24.10;77.50;;;;;;5040289;28;20057;-78
2023/05/16 10:07:05;;;;;;;2.05;0.70;;;24.10;78.00;;;;;;5025687;28;20140;-79
2023/05/16 10:09:32;;;;;;;1.37;0.87;;;24.10;77.60;;;;;;5035539;28;20021;-79
2023/05/16 10:12:05;;;;;;;1.27;0.60;;;24.10;76.70;;;;;;5029851;28;20106;-81
2023/05/16 10:14:36;;;;;;;2.05;0.70;;;24.00;75.10;;;;;;5021561;28;20036;-80
2023/05/16 10:17:10;;;;;;;1.35;0.70;;;23.90;73.00;;;;;;5001549;28;20154;-79
2023/05/16 10:19:38;;;;;;;2.08;0.77;;;23.70;71.90;;;;;;5046318;28;20356;-82
2023/05/16 10:22:06;;;;;;;1.93;0.70;;;23.70;74.20;;;;;;5022996;28;20021;-80
2023/05/16 10:24:43;;;;;;;1.92;0.60;;;23.70;77.20;;;;;;5037709;28;20116;-81
2023/05/16 10:27:09;;;;;;;2.60;0.80;;;23.80;74.00;;;;;;5043826;28;20030;-78
2023/05/16 10:29:38;;;;;;;2.08;0.70;;;23.90;76.50;;;;;;5010162;28;20033;-79
2023/05/16 10:32:06;;;;;;;1.63;0.70;;;24.00;74.30;;;;;;5046056;28;20033;-80
2023/05/16 10:34:32;;;;;;;2.00;0.60;;;23.90;73.50;;;;;;5001094;28;20028;-79
2023/05/16 10:36:59;;;;;;;0.95;0.60;;;23.90;74.50;;;;;;5031880;28;20043;-79
2023/05/16 10:39:26;;;;;;;1.52;0.70;;;24.00;75.40;;;;;;5035840;28;20397;-79
2023/05/16 10:41:52;;;;;;;0.77;0.60;;;24.10;75.80;;;;;;5041750;28;20383;-79
2023/05/16 10:44:18;;;;;;;1.83;0.80;;;24.40;76.80;;;;;;5023332;28;20033;-79
2023/05/16 10:46:48;;;;;;;1.67;0.90;;;24.70;76.10;;;;;;5026207;28;20025;-82
2023/05/16 10:49:24;;;;;;;1.13;0.60;;;25.00;73.40;;;;;;5000430;28;22253;-78
2023/05/16 10:52:10;;;;;;;1.30;0.80;;;25.10;71.40;;;;;;5037197;28;20512;-81
2023/05/16 10:54:40;;;;;;;1.30;0.80;;;25.30;69.70;;;;;;5038447;28;20112;-79
2023/05/16 10:57:10;;;;;;;2.97;0.70;;;25.50;75.00;;;;;;5035913;28;20690;-79
2023/05/16 10:59:42;;;;;;;1.65;0.68;;;25.80;74.80;;;;;;5039258;28;20040;-79
2023/05/16 11:02:29;;;;;;;2.20;1.00;;;26.10;73.60;;;;;;5028649;28;20857;-79
2023/05/16 11:04:59;;;;;;;2.72;0.80;;;26.30;69.80;;;;;;5023584;28;20029;-81
2023/05/16 11:07:33;;;;;;;1.02;0.80;;;26.40;71.70;;;;;;5053005;28;20056;-80
2023/05/16 11:10:09;;;;;;;1.50;0.60;;;26.60;71.90;;;;;;5039191;28;20042;-80
2023/05/16 11:12:49;;;;;;;1.40;0.80;;;26.90;71.50;;;;;;5043124;28;20400;-79
2023/05/16 11:15:26;;;;;;;1.30;0.60;;;27.10;70.30;;;;;;5031258;28;20617;-79
2023/05/16 11:18:08;;;;;;;1.30;0.70;;;27.20;67.50;;;;;;5043173;28;20364;-80
2023/05/16 11:20:36;;;;;;;1.95;0.68;;;27.20;67.00;;;;;;5003505;28;20904;-79
2023/05/16 11:23:20;;;;;;;1.63;0.73;;;27.30;70.10;;;;;;5039185;28;20708;-79
2023/05/16 11:25:52;;;;;;;1.55;0.80;;;27.40;65.70;;;;;;5043689;28;20559;-78
2023/05/16 11:28:21;;;;;;;1.58;0.80;;;27.60;69.80;;;;;;5055226;28;20052;-79
2023/05/16 11:30:56;;;;;;;2.05;0.75;;;27.60;67.70;;;;;;5044672;28;20048;-78
2023/05/16 11:33:23;;;;;;;1.00;0.65;;;27.70;64.90;;;;;;5037129;28;20029;-78
2023/05/16 11:36:08;;;;;;;1.87;0.70;;;27.60;66.80;;;;;;5040082;28;20021;-80
2023/05/16 11:38:34;;;;;;;1.27;0.70;;;27.60;63.30;;;;;;5012733;28;20025;-79
2023/05/16 11:41:07;;;;;;;2.10;0.65;;;27.50;66.60;;;;;;5041454;28;20032;-79
2023/05/16 11:43:40;;;;;;;2.05;0.88;;;27.50;64.50;;;;;;5037646;28;20344;-80
2023/05/16 11:46:06;;;;;;;1.05;0.70;;;27.70;65.80;;;;;;5048214;28;20021;-80
2023/05/16 11:48:33;;;;;;;1.67;0.77;;;27.80;66.80;;;;;;5010534;28;20244;-81
2023/05/16 11:50:59;;;;;;;1.75;0.70;;;27.80;65.90;;;;;;5045281;28;20488;-79
2023/05/16 11:53:27;;;;;;;1.60;0.80;;;27.70;64.80;;;;;;5018959;28;20080;-79
2023/05/16 11:55:53;;;;;;;3.25;2.08;;;27.60;62.90;;;;;;5039794;28;20453;-79
2023/05/16 11:58:19;;;;;;;5.10;3.27;;;27.40;61.50;;;;;;5021646;28;20029;-80
2023/05/16 12:00:49;;;;;;;3.55;1.70;;;27.10;61.10;;;;;;5039830;28;20230;-82
2023/05/16 12:03:16;;;;;;;5.65;4.22;;;26.90;62.00;;;;;;5046573;28;20037;-79
2023/05/16 12:06:07;;;;;;;7.05;5.00;;;26.80;62.00;;;;;;5035895;28;20084;-80
2023/05/16 12:08:34;;;;;;;3.90;2.20;;;26.50;60.20;;;;;;5005799;28;20395;-78
2023/05/16 12:10:59;;;;;;;7.13;3.10;;;26.30;60.30;;;;;;5039310;28;20559;-79
2023/05/16 12:13:25;;;;;;;5.00;2.20;;;26.00;60.00;;;;;;5033101;28;20542;-78
2023/05/16 12:15:52;;;;;;;4.83;1.50;;;25.80;60.30;;;;;;5039631;28;20025;-82
2023/05/16 12:18:19;;;;;;;2.35;1.10;;;25.50;60.30;;;;;;5019181;28;20060;-80
2023/05/16 12:20:45;;;;;;;2.08;1.00;;;25.40;60.40;;;;;;5037388;28;20252;-82
2023/05/16 12:23:12;;;;;;;2.10;0.82;;;25.20;60.20;;;;;;5003241;28;20091;-82
2023/05/16 12:25:45;;;;;;;1.85;0.82;;;25.00;60.00;;;;;;5034543;28;20049;-80
2023/05/16 12:28:13;;;;;;;1.73;0.80;;;24.80;58.50;;;;;;5035728;28;20031;-79
2023/05/16 12:30:43;;;;;;;1.83;0.60;;;24.60;59.90;;;;;;5035905;28;20480;-82
2023/05/16 12:33:12;;;;;;;1.23;0.60;;;24.50;59.00;;;;;;5017186;28;20029;-80
2023/05/16 12:35:40;;;;;;;1.42;0.65;;;24.30;59.10;;;;;;5040533;28;20021;-80
2023/05/16 12:38:08;;;;;;;0.95;0.60;;;24.10;58.90;;;;;;5005024;28;20032;-82
2023/05/16 12:40:36;;;;;;;1.17;0.63;;;23.90;59.00;;;;;;5035209;28;20039;-81
2023/05/16 12:43:02;;;;;;;3.47;0.60;;;23.60;58.60;;;;;;5053239;28;20111;-78
2023/05/16 12:45:28;;;;;;;6.07;0.70;;;23.50;60.20;;;;;;5035830;28;20660;-80
2023/05/16 12:47:54;;;;;;;3.43;0.83;;;23.40;61.70;;;;;;5021610;28;20115;-79
2023/05/16 12:50:20;;;;;;;1.58;0.50;;;23.60;63.20;;;;;;5026167;28;20056;-79